Time;durP1;ratioP1;P1;durP2;ratioP2;P2;SDS_P1;SDS_P2;PMS_P1;PMS_P2;Temp;Humidity;BMP_temperature;BMP_pressure;BME280_temperature;BME280_humidity;BME280_pressure;Samples;Min_cycle;Max_cycle;Signal;HPM_P1;HPM_P2
2021/09/18 00:00:29;;;;;;;11.80;10.60;;;;;;;15.54;86.52;99777.35;93913;1196;81491;-72
2021/09/18 00:02:44;;;;;;;13.20;10.60;;;;;;;15.53;86.66;99778.66;93882;1196;80483;-72
2021/09/18 00:04:51;;;;;;;12.90;11.60;;;;;;;15.59;86.60;99774.77;93900;1196;97310;-72
2021/09/18 00:06:56;;;;;;;12.40;11.20;;;;;;;15.62;86.61;99776.01;93926;1196;87226;-73
2021/09/18 00:09:00;;;;;;;12.90;11.20;;;;;;;15.61;86.64;99772.13;93873;1196;92296;-73
2021/09/18 00:11:04;;;;;;;11.70;10.50;;;;;;;15.64;86.54;99772.24;93705;1196;81354;-72
2021/09/18 00:13:09;;;;;;;11.50;10.40;;;;;;;15.62;86.49;99770.95;93877;1196;82277;-73
2021/09/18 00:15:14;;;;;;;11.70;10.50;;;;;;;15.61;86.49;99769.01;93870;1196;97880;-73
2021/09/18 00:17:18;;;;;;;11.30;10.20;;;;;;;15.56;86.50;99767.20;93905;1196;87695;-73
2021/09/18 00:19:22;;;;;;;15.70;11.60;;;;;;;15.50;86.55;99765.92;93906;1196;92150;-72
2021/09/18 00:21:30;;;;;;;11.80;10.60;;;;;;;15.48;86.63;99771.00;93717;1196;81442;-72
2021/09/18 00:23:34;;;;;;;11.50;10.30;;;;;;;15.49;86.61;99771.83;93923;1196;82027;-72
2021/09/18 00:25:42;;;;;;;12.50;9.40;;;;;;;15.50;86.65;99771.85;93908;1196;97773;-70
2021/09/18 00:27:49;;;;;;;12.50;9.90;;;;;;;15.55;86.68;99771.86;93725;1196;86412;-73
2021/09/18 00:29:53;;;;;;;11.10;10.00;;;;;;;15.55;86.67;99769.02;93852;1196;94695;-69
2021/09/18 00:31:58;;;;;;;11.60;10.20;;;;;;;15.53;86.67;99765.83;93864;1196;80343;-70
2021/09/18 00:34:02;;;;;;;10.60;9.60;;;;;;;15.55;86.65;99762.16;93913;1196;81784;-69
2021/09/18 00:36:07;;;;;;;11.20;9.60;;;;;;;15.57;86.74;99769.46;93871;1196;98279;-67
2021/09/18 00:38:12;;;;;;;9.70;8.80;;;;;;;15.58;86.79;99765.67;93901;1196;86942;-68
2021/09/18 00:40:17;;;;;;;10.70;9.70;;;;;;;15.59;86.80;99770.76;94001;1195;92150;-68
2021/09/18 00:42:21;;;;;;;10.60;9.60;;;;;;;15.59;86.80;99768.31;93916;1189;78528;-67
2021/09/18 00:44:29;;;;;;;11.30;9.70;;;;;;;15.61;86.79;99766.02;93914;1196;80878;-70
2021/09/18 00:46:34;;;;;;;11.10;10.00;;;;;;;15.62;86.76;99765.13;93897;1196;98651;-71
2021/09/18 00:48:38;;;;;;;10.70;9.70;;;;;;;15.62;86.68;99769.64;93931;1196;88607;-67
2021/09/18 00:50:43;;;;;;;10.20;9.20;;;;;;;15.60;86.71;99765.05;93889;1196;93152;-67
2021/09/18 00:52:49;;;;;;;11.50;10.40;;;;;;;15.57;86.71;99765.75;93921;1196;78593;-64
2021/09/18 00:54:53;;;;;;;10.50;9.40;;;;;;;15.56;86.78;99767.63;93969;1196;80535;-69
2021/09/18 00:56:59;;;;;;;10.70;9.70;;;;;;;15.54;86.79;99764.02;93908;1196;98731;-69
2021/09/18 00:59:04;;;;;;;10.10;9.10;;;;;;;15.53;86.76;99764.46;93891;1196;87662;-67
2021/09/18 01:01:08;;;;;;;10.00;9.00;;;;;;;15.46;86.84;99765.66;93894;1196;93576;-67
2021/09/18 01:03:32;;;;;;;10.30;9.30;;;;;;;15.46;86.88;99765.70;93734;1196;80158;-64
2021/09/18 01:05:37;;;;;;;10.40;9.50;;;;;;;15.50;86.90;99764.02;93668;1198;80992;-62
2021/09/18 01:07:43;;;;;;;10.30;9.30;;;;;;;15.48;86.93;99762.58;93942;1196;97181;-62
2021/09/18 01:09:48;;;;;;;9.50;8.60;;;;;;;15.48;86.92;99763.59;93953;1193;86665;-61
2021/09/18 01:11:52;;;;;;;9.50;8.50;;;;;;;15.50;86.95;99763.91;93904;1196;94364;-66
2021/09/18 01:13:57;;;;;;;11.50;8.80;;;;;;;15.51;86.99;99766.00;93877;1196;79737;-61
2021/09/18 01:16:01;;;;;;;9.80;8.80;;;;;;;15.53;87.03;99769.43;93997;1196;81362;-62
2021/09/18 01:18:07;;;;;;;10.60;8.90;;;;;;;15.52;87.08;99766.45;93932;1196;96483;-64
2021/09/18 01:20:13;;;;;;;10.80;8.70;;;;;;;15.55;87.07;99764.13;93954;1196;88280;-63
2021/09/18 01:22:20;;;;;;;9.60;8.50;;;;;;;15.55;86.98;99756.63;93931;1196;93990;-66
2021/09/18 01:24:24;;;;;;;10.50;9.50;;;;;;;15.55;87.05;99757.71;93921;1196;78473;-67
2021/09/18 01:26:35;;;;;;;10.30;9.30;;;;;;;15.56;87.03;99758.27;93939;1196;81897;-67
2021/09/18 01:28:41;;;;;;;9.80;8.90;;;;;;;15.55;87.09;99758.80;93924;1196;98949;-67
2021/09/18 01:30:46;;;;;;;10.80;9.70;;;;;;;15.55;87.05;99755.42;93912;1196;88446;-64
2021/09/18 01:32:52;;;;;;;11.00;9.90;;;;;;;15.54;87.13;99753.96;93950;1196;94066;-64
2021/09/18 01:34:57;;;;;;;10.40;9.30;;;;;;;15.52;87.15;99751.16;93933;1195;80883;-67
2021/09/18 01:37:01;;;;;;;10.60;9.10;;;;;;;15.49;87.22;99747.73;93931;1196;82352;-68
2021/09/18 01:39:12;;;;;;;10.90;9.90;;;;;;;15.53;87.20;99750.42;93747;1196;97318;-69
2021/09/18 01:41:17;;;;;;;10.10;9.20;;;;;;;15.56;87.14;99744.71;93947;1196;88367;-66
2021/09/18 01:43:21;;;;;;;12.00;9.30;;;;;;;15.58;87.18;99746.39;93931;1196;92771;-68
2021/09/18 01:45:27;;;;;;;10.80;9.80;;;;;;;15.59;87.15;99747.09;93909;1196;81366;-70
2021/09/18 01:47:45;;;;;;;10.60;9.60;;;;;;;15.61;87.15;99744.79;93966;1196;82476;-65
2021/09/18 01:49:49;;;;;;;13.30;11.50;;;;;;;15.61;87.11;99741.02;93959;1196;97861;-64
2021/09/18 01:51:56;;;;;;;12.20;11.10;;;;;;;15.59;87.20;99740.21;94003;1196;87176;-67
2021/09/18 01:54:01;;;;;;;14.30;10.80;;;;;;;15.56;87.26;99737.92;93923;1196;92443;-64
2021/09/18 01:56:06;;;;;;;12.40;11.20;;;;;;;15.58;87.27;99736.81;93891;1196;79867;-66
2021/09/18 01:58:12;;;;;;;13.00;11.10;;;;;;;15.59;87.20;99733.55;93955;1196;81727;-64
2021/09/18 02:00:18;;;;;;;13.30;12.00;;;;;;;15.61;87.19;99731.92;93927;1195;99251;-63
2021/09/18 02:02:23;;;;;;;12.30;11.10;;;;;;;15.60;87.26;99727.22;93926;1196;86845;-65
2021/09/18 02:04:27;;;;;;;12.20;11.00;;;;;;;15.59;87.21;99727.52;93906;1196;94939;-64
2021/09/18 02:06:32;;;;;;;12.40;11.20;;;;;;;15.58;87.22;99724.12;93917;1197;81010;-65
2021/09/18 02:08:36;;;;;;;11.60;10.50;;;;;;;15.58;87.23;99726.08;93983;1196;82257;-63
2021/09/18 02:10:41;;;;;;;12.50;11.10;;;;;;;15.58;87.21;99727.23;93730;1196;97448;-63
2021/09/18 02:12:46;;;;;;;12.60;11.30;;;;;;;15.58;87.21;99723.41;93903;1196;89414;-66
2021/09/18 02:14:51;;;;;;;13.30;11.40;;;;;;;15.54;87.24;99724.81;93906;1196;93883;-65
2021/09/18 02:16:55;;;;;;;13.20;11.60;;;;;;;15.53;87.22;99727.38;93934;1196;81762;-65
2021/09/18 02:18:59;;;;;;;12.50;11.20;;;;;;;15.51;87.28;99725.59;93932;1196;80193;-67
2021/09/18 02:21:04;;;;;;;12.20;11.00;;;;;;;15.47;87.27;99722.67;93902;1196;98900;-63
2021/09/18 02:23:11;;;;;;;11.80;10.70;;;;;;;15.48;87.28;99722.80;93970;1195;86747;-64
2021/09/18 02:25:17;;;;;;;13.70;12.30;;;;;;;15.51;87.36;99724.45;93964;1196;94277;-68
2021/09/18 02:27:21;;;;;;;13.90;11.40;;;;;;;15.49;87.39;99722.20;93910;1196;81248;-68
2021/09/18 02:29:26;;;;;;;14.20;11.10;;;;;;;15.50;87.31;99723.55;93934;1196;81513;-67
2021/09/18 02:31:30;;;;;;;12.50;11.20;;;;;;;15.51;87.39;99718.05;93928;1196;99138;-66
2021/09/18 02:33:35;;;;;;;14.10;11.80;;;;;;;15.54;87.42;99719.88;93918;1195;88123;-67
2021/09/18 02:35:39;;;;;;;14.00;12.50;;;;;;;15.57;87.29;99714.48;93936;1196;93575;-66
2021/09/18 02:37:45;;;;;;;14.10;11.50;;;;;;;15.56;87.35;99715.85;94011;1196;79514;-62
2021/09/18 02:39:53;;;;;;;12.30;11.00;;;;;;;15.55;87.38;99708.76;93912;1196;81086;-64
2021/09/18 02:41:58;;;;;;;13.40;11.00;;;;;;;15.55;87.44;99714.48;93937;1196;98932;-62
2021/09/18 02:44:03;;;;;;;12.70;11.30;;;;;;;15.52;87.43;99713.86;93917;1196;87576;-65
2021/09/18 02:46:07;;;;;;;13.80;12.00;;;;;;;15.50;87.45;99713.48;94052;1196;92899;-63
2021/09/18 02:48:12;;;;;;;13.50;11.90;;;;;;;15.51;87.45;99714.50;93974;1196;78492;-64
2021/09/18 02:50:19;;;;;;;14.10;12.70;;;;;;;15.54;87.39;99717.31;93982;1196;82223;-66
2021/09/18 02:52:23;;;;;;;13.40;12.00;;;;;;;15.52;87.43;99717.08;93959;1196;99668;-68
2021/09/18 02:54:28;;;;;;;13.40;11.70;;;;;;;15.51;87.35;99714.02;93961;1196;87569;-65
2021/09/18 02:56:32;;;;;;;14.20;12.80;;;;;;;15.52;87.41;99715.27;93943;1189;93737;-66
2021/09/18 02:58:37;;;;;;;13.40;11.70;;;;;;;15.55;87.54;99714.77;93957;1195;78640;-65
2021/09/18 03:00:42;;;;;;;14.00;12.50;;;;;;;15.53;87.60;99712.56;93644;1196;81051;-65
2021/09/18 03:02:46;;;;;;;14.00;12.50;;;;;;;15.50;87.67;99712.90;93922;1196;97758;-66
2021/09/18 03:04:53;;;;;;;14.40;12.90;;;;;;;15.53;87.58;99711.09;93918;1196;88342;-67
2021/09/18 03:06:58;;;;;;;18.30;13.90;;;;;;;15.54;87.57;99706.72;93942;1196;93050;-66
2021/09/18 03:09:03;;;;;;;25.20;13.50;;;;;;;15.56;87.55;99708.98;93980;1196;80051;-72
2021/09/18 03:11:08;;;;;;;13.30;11.90;;;;;;;15.58;87.64;99707.73;93917;1197;81133;-71
2021/09/18 03:13:12;;;;;;;14.40;11.90;;;;;;;15.59;87.61;99710.14;93976;1196;98709;-72
2021/09/18 03:15:16;;;;;;;14.20;12.20;;;;;;;15.62;87.64;99707.17;93937;1196;87533;-71
2021/09/18 03:17:24;;;;;;;13.50;12.10;;;;;;;15.66;87.61;99705.78;94001;1196;92762;-71
2021/09/18 03:19:28;;;;;;;15.30;13.20;;;;;;;15.63;87.65;99705.07;93960;1196;78576;-71
2021/09/18 03:21:33;;;;;;;16.20;14.00;;;;;;;15.59;87.59;99705.70;93979;1196;82251;-72
2021/09/18 03:23:37;;;;;;;15.40;13.80;;;;;;;15.57;87.53;99710.23;93917;1196;98292;-72
2021/09/18 03:25:43;;;;;;;16.50;14.40;;;;;;;15.52;87.57;99707.92;93955;1196;88204;-71
2021/09/18 03:27:48;;;;;;;16.30;14.30;;;;;;;15.50;87.57;99705.67;93958;1196;93590;-72
2021/09/18 03:29:52;;;;;;;16.70;13.90;;;;;;;15.50;87.63;99705.20;93969;1196;78261;-72
2021/09/18 03:31:57;;;;;;;18.10;15.30;;;;;;;15.54;87.64;99704.21;93991;1196;80441;-73
2021/09/18 03:34:01;;;;;;;18.60;15.80;;;;;;;15.53;87.65;99705.93;93959;1196;97940;-72
2021/09/18 03:36:06;;;;;;;16.60;14.00;;;;;;;15.53;87.61;99706.61;93914;1196;85772;-72
2021/09/18 03:38:13;;;;;;;16.50;14.80;;;;;;;15.57;87.56;99706.45;93945;1196;94538;-72
2021/09/18 03:40:19;;;;;;;15.80;14.20;;;;;;;15.56;87.61;99707.56;93944;1196;78519;-71
2021/09/18 03:42:24;;;;;;;18.60;15.70;;;;;;;15.57;87.62;99709.13;94032;1196;81451;-71
2021/09/18 03:44:28;;;;;;;19.20;15.10;;;;;;;15.54;87.63;99709.94;93950;1196;98984;-71
2021/09/18 03:46:32;;;;;;;18.60;14.80;;;;;;;15.55;87.72;99709.84;93967;1196;86623;-72
2021/09/18 03:48:37;;;;;;;16.10;14.30;;;;;;;15.56;87.70;99718.58;93971;1197;93531;-72
2021/09/18 03:50:41;;;;;;;10.90;9.60;;;;;;;15.55;87.74;99718.92;93923;1196;77889;-71
2021/09/18 03:52:45;;;;;;;8.90;7.40;;;;;;;15.46;87.58;99713.55;93978;1197;80461;-71
2021/09/18 03:54:50;;;;;;;7.60;6.60;;;;;;;15.42;87.47;99715.79;93958;1197;97812;-72
2021/09/18 03:56:54;;;;;;;8.30;7.00;;;;;;;15.34;87.39;99716.64;93994;1197;88469;-72
2021/09/18 03:58:59;;;;;;;9.10;6.90;;;;;;;15.29;87.28;99716.52;93946;1197;94074;-72
2021/09/18 04:01:03;;;;;;;9.70;6.30;;;;;;;15.27;87.25;99720.23;93911;1196;81406;-71
2021/09/18 04:03:07;;;;;;;6.40;5.40;;;;;;;15.23;87.25;99715.39;93951;1196;82102;-72
2021/09/18 04:05:12;;;;;;;8.80;6.10;;;;;;;15.17;87.19;99719.92;93926;1196;97431;-71
2021/09/18 04:07:17;;;;;;;8.20;6.00;;;;;;;15.04;87.15;99716.08;93959;1196;87611;-72
2021/09/18 04:09:21;;;;;;;8.90;6.10;;;;;;;14.93;87.24;99717.64;93909;1196;93607;-71
2021/09/18 04:11:26;;;;;;;7.50;6.10;;;;;;;14.87;87.28;99717.80;93961;1196;80917;-72
2021/09/18 04:13:33;;;;;;;7.30;5.40;;;;;;;14.84;87.35;99718.02;93966;1196;82884;-71
2021/09/18 04:15:40;;;;;;;8.20;5.80;;;;;;;14.82;87.30;99719.42;93960;1196;98769;-71
2021/09/18 04:17:44;;;;;;;7.00;5.90;;;;;;;14.77;87.30;99716.64;93991;1196;86663;-72
2021/09/18 04:19:49;;;;;;;7.10;5.50;;;;;;;14.73;87.32;99713.89;93920;1196;94196;-71
2021/09/18 04:21:53;;;;;;;8.10;6.50;;;;;;;14.73;87.43;99717.14;93970;1195;81456;-71
2021/09/18 04:23:57;;;;;;;7.40;5.30;;;;;;;14.74;87.38;99722.76;93997;1195;81417;-71
2021/09/18 04:26:05;;;;;;;6.90;5.50;;;;;;;14.67;87.46;99720.19;93970;1196;97822;-71
2021/09/18 04:28:13;;;;;;;8.00;6.10;;;;;;;14.66;87.53;99723.21;93996;1197;86786;-71
2021/09/18 04:30:18;;;;;;;7.30;5.90;;;;;;;14.61;87.51;99721.06;93918;1196;94279;-71
2021/09/18 04:32:23;;;;;;;8.30;6.80;;;;;;;14.61;87.50;99721.23;93933;1196;81391;-72
2021/09/18 04:34:27;;;;;;;8.80;6.70;;;;;;;14.53;87.73;99722.38;93948;1196;79985;-72
2021/09/18 04:36:31;;;;;;;9.20;7.30;;;;;;;14.49;87.79;99722.55;93942;1196;97474;-72
2021/09/18 04:38:36;;;;;;;10.30;8.10;;;;;;;14.49;87.85;99723.34;93960;1196;86534;-71
2021/09/18 04:40:40;;;;;;;12.10;9.80;;;;;;;14.43;87.88;99725.26;93925;1197;93775;-72
2021/09/18 04:42:44;;;;;;;12.90;10.40;;;;;;;14.45;87.85;99727.92;93941;1196;81341;-72
2021/09/18 04:44:49;;;;;;;15.40;11.70;;;;;;;14.42;87.84;99727.88;93947;1197;80594;-73
2021/09/18 04:46:53;;;;;;;14.60;11.10;;;;;;;14.33;87.86;99732.51;93978;1196;97542;-71
2021/09/18 04:48:57;;;;;;;13.10;9.80;;;;;;;14.27;88.14;99734.95;93963;1195;87503;-71
2021/09/18 04:51:04;;;;;;;15.30;10.10;;;;;;;14.25;88.04;99736.95;93949;1196;93461;-71
2021/09/18 04:53:12;;;;;;;12.10;8.60;;;;;;;14.27;88.04;99741.09;93962;1196;79235;-72
2021/09/18 04:55:16;;;;;;;12.10;8.30;;;;;;;14.29;87.95;99742.86;93932;1196;82058;-71
2021/09/18 04:57:21;;;;;;;9.50;6.70;;;;;;;14.32;87.85;99744.98;93927;1196;97593;-72
2021/09/18 04:59:25;;;;;;;11.70;8.50;;;;;;;14.33;87.78;99747.81;93905;1197;88108;-72
2021/09/18 05:01:30;;;;;;;10.90;7.20;;;;;;;14.34;87.71;99751.52;93942;1195;94957;-73
2021/09/18 05:03:34;;;;;;;8.50;7.50;;;;;;;14.31;87.74;99752.88;93886;1196;79082;-72
2021/09/18 05:05:39;;;;;;;8.00;6.10;;;;;;;14.32;87.62;99755.05;93962;1196;80369;-72
2021/09/18 05:07:44;;;;;;;8.00;6.00;;;;;;;14.22;87.66;99756.08;93953;1196;97554;-72
2021/09/18 05:09:48;;;;;;;11.40;6.10;;;;;;;14.14;87.81;99759.52;93900;1196;86272;-71
2021/09/18 05:11:55;;;;;;;8.50;6.50;;;;;;;14.14;87.81;99758.98;93904;1196;93072;-73
2021/09/18 05:14:00;;;;;;;9.30;6.60;;;;;;;14.20;87.67;99756.70;93717;1198;77697;-72
2021/09/18 05:16:05;;;;;;;8.10;6.70;;;;;;;14.28;87.63;99754.67;93969;1196;80618;-72
2021/09/18 05:18:12;;;;;;;9.10;6.80;;;;;;;14.31;87.65;99756.82;93928;1197;97527;-73
2021/09/18 05:20:16;;;;;;;9.30;6.90;;;;;;;14.34;87.53;99758.46;93929;1196;86766;-72
2021/09/18 05:22:21;;;;;;;10.50;7.60;;;;;;;14.31;87.56;99760.84;93921;1196;94146;-72
2021/09/18 05:24:27;;;;;;;8.80;7.40;;;;;;;14.26;87.52;99762.51;93942;1196;78180;-72
2021/09/18 05:26:31;;;;;;;11.70;8.20;;;;;;;14.25;87.62;99764.02;93977;1196;80641;-73
2021/09/18 05:28:36;;;;;;;11.50;8.60;;;;;;;14.21;87.60;99765.46;93926;1190;98294;-72
2021/09/18 05:30:43;;;;;;;11.40;8.90;;;;;;;14.23;87.60;99765.30;93900;1196;87376;-70
2021/09/18 05:32:51;;;;;;;13.50;8.80;;;;;;;14.21;87.62;99768.24;93957;1196;92850;-72
2021/09/18 05:34:55;;;;;;;11.80;9.50;;;;;;;14.04;87.85;99771.71;93897;1195;78333;-74
2021/09/18 05:37:04;;;;;;;12.60;10.50;;;;;;;13.93;87.84;99769.97;93980;1196;82198;-74
2021/09/18 05:39:09;;;;;;;13.00;9.60;;;;;;;13.95;87.76;99774.87;93934;1196;98860;-72
2021/09/18 05:41:13;;;;;;;12.30;10.80;;;;;;;13.96;87.72;99780.80;93882;1195;87517;-70
2021/09/18 05:43:17;;;;;;;11.70;9.90;;;;;;;13.89;87.64;99785.85;93914;1196;92910;-71
2021/09/18 05:45:22;;;;;;;15.50;11.80;;;;;;;13.81;87.67;99789.73;93900;1197;80845;-72
2021/09/18 05:47:26;;;;;;;19.00;15.60;;;;;;;13.81;87.64;99791.87;93959;1196;81995;-71
2021/09/18 05:49:34;;;;;;;13.50;10.00;;;;;;;13.76;87.64;99793.51;93911;1196;98286;-71
2021/09/18 05:51:41;;;;;;;9.90;8.40;;;;;;;13.71;87.56;99793.52;93924;1196;87402;-70
2021/09/18 05:53:46;;;;;;;11.90;8.30;;;;;;;13.72;87.44;99795.34;93919;1196;93045;-72
2021/09/18 05:55:50;;;;;;;12.10;8.50;;;;;;;13.73;87.44;99793.20;93894;1196;80175;-70
2021/09/18 05:57:57;;;;;;;10.30;8.50;;;;;;;13.80;87.35;99794.60;93924;1195;82253;-69
2021/09/18 06:00:03;;;;;;;8.60;7.70;;;;;;;13.83;87.33;99792.14;93881;1196;98653;-70
2021/09/18 06:02:08;;;;;;;9.40;6.80;;;;;;;13.82;87.32;99795.48;93925;1196;87987;-70
2021/09/18 06:04:12;;;;;;;8.10;7.20;;;;;;;13.82;87.31;99795.20;93869;1196;94341;-70
2021/09/18 06:06:16;;;;;;;8.00;7.10;;;;;;;13.81;87.24;99798.64;93908;1196;79467;-70
2021/09/18 06:08:22;;;;;;;10.10;6.80;;;;;;;13.74;87.22;99799.59;93922;1196;82004;-71
2021/09/18 06:10:26;;;;;;;8.20;6.90;;;;;;;13.73;87.24;99799.01;93900;1196;97436;-73
2021/09/18 06:12:34;;;;;;;8.90;7.10;;;;;;;13.69;87.06;99801.25;93933;1197;87270;-73
2021/09/18 06:14:44;;;;;;;8.60;6.60;;;;;;;13.62;87.00;99803.66;93858;1196;94045;-71
2021/09/18 06:16:49;;;;;;;9.70;7.80;;;;;;;13.58;87.12;99803.95;93908;1196;81251;-71
2021/09/18 06:18:54;;;;;;;9.10;7.50;;;;;;;13.51;87.16;99809.98;93917;1196;80662;-73
2021/09/18 06:21:00;;;;;;;9.10;6.90;;;;;;;13.48;87.07;99810.30;93917;1196;97008;-75
2021/09/18 06:23:07;;;;;;;10.40;7.90;;;;;;;13.44;87.02;99814.22;93921;1196;87861;-71
2021/09/18 06:25:13;;;;;;;9.40;8.40;;;;;;;13.42;87.09;99818.59;93925;1196;93614;-72
2021/09/18 06:27:20;;;;;;;10.40;9.00;;;;;;;13.38;86.99;99820.74;93894;1196;78671;-72
2021/09/18 06:29:28;;;;;;;11.70;9.20;;;;;;;13.38;87.02;99822.16;93923;1196;82817;-71
2021/09/18 06:31:33;;;;;;;13.40;10.00;;;;;;;13.33;87.01;99821.05;93894;1196;98524;-77
2021/09/18 06:33:40;;;;;;;11.10;8.40;;;;;;;13.29;86.94;99828.08;93891;1196;88197;-70
2021/09/18 06:35:45;;;;;;;10.00;8.00;;;;;;;13.19;86.87;99822.11;93847;1196;93809;-71
2021/09/18 06:37:50;;;;;;;8.70;7.70;;;;;;;13.18;86.78;99824.67;93927;1196;78852;-72
2021/09/18 06:39:54;;;;;;;11.00;8.50;;;;;;;13.17;86.59;99822.84;93941;1195;81101;-70
2021/09/18 06:41:58;;;;;;;11.30;8.40;;;;;;;13.11;86.66;99824.96;93913;1196;98359;-74
2021/09/18 06:44:03;;;;;;;11.70;9.10;;;;;;;13.14;86.75;99825.07;93915;1196;86530;-73
2021/09/18 06:46:08;;;;;;;14.00;8.00;;;;;;;13.15;86.71;99829.41;93923;1196;94506;-71
2021/09/18 06:48:17;;;;;;;9.80;7.30;;;;;;;13.16;86.81;99831.11;93916;1196;80529;-74
2021/09/18 06:50:22;;;;;;;9.30;7.30;;;;;;;13.16;86.71;99832.98;93916;1196;81495;-74
2021/09/18 06:52:26;;;;;;;13.30;8.90;;;;;;;13.10;86.57;99832.08;93909;1196;96958;-74
2021/09/18 06:54:30;;;;;;;14.50;9.20;;;;;;;13.03;86.63;99831.71;93888;1196;87649;-74
2021/09/18 06:56:35;;;;;;;13.40;9.20;;;;;;;12.93;86.60;99830.95;93923;1196;94171;-75
2021/09/18 06:58:39;;;;;;;9.20;7.60;;;;;;;12.89;86.53;99830.64;93936;1196;79926;-73
2021/09/18 07:00:44;;;;;;;10.00;6.70;;;;;;;12.83;86.69;99834.30;93863;1196;82323;-73
2021/09/18 07:02:51;;;;;;;9.70;6.60;;;;;;;12.83;86.66;99834.20;93894;1196;98513;-71
2021/09/18 07:05:00;;;;;;;9.80;8.00;;;;;;;12.83;86.79;99834.01;93932;1196;86504;-73
2021/09/18 07:07:05;;;;;;;10.60;7.60;;;;;;;12.80;86.88;99838.95;93908;1196;92100;-72
2021/09/18 07:09:09;;;;;;;8.50;6.70;;;;;;;12.82;86.73;99838.63;93872;1196;79878;-72
2021/09/18 07:11:13;;;;;;;7.10;6.20;;;;;;;12.84;86.76;99837.09;93906;1197;80462;-73
2021/09/18 07:13:23;;;;;;;8.70;6.90;;;;;;;12.79;86.79;99837.28;93862;1196;98167;-73
2021/09/18 07:15:28;;;;;;;9.40;6.90;;;;;;;12.75;86.83;99837.46;93886;1196;86459;-72
2021/09/18 07:17:35;;;;;;;8.70;6.50;;;;;;;12.78;86.74;99838.91;93891;1196;94532;-71
2021/09/18 07:19:43;;;;;;;7.80;6.70;;;;;;;12.78;86.74;99841.33;93870;1196;80409;-72
2021/09/18 07:21:47;;;;;;;7.00;5.60;;;;;;;12.83;86.65;99838.30;93892;1196;80867;-72
2021/09/18 07:23:52;;;;;;;7.60;4.70;;;;;;;12.86;86.70;99846.00;93865;1196;98351;-74
2021/09/18 07:25:56;;;;;;;7.50;5.50;;;;;;;12.90;86.69;99845.80;93922;1196;88190;-74
2021/09/18 07:28:01;;;;;;;5.70;4.40;;;;;;;12.98;86.73;99847.08;93885;1196;94519;-73
2021/09/18 07:30:09;;;;;;;6.60;5.60;;;;;;;13.10;86.78;99846.84;93873;1196;77544;-74
2021/09/18 07:32:14;;;;;;;4.80;3.90;;;;;;;13.20;86.88;99846.97;93899;1196;80321;-72
2021/09/18 07:34:18;;;;;;;6.60;4.00;;;;;;;13.34;86.69;99847.78;93883;1196;98242;-72
2021/09/18 07:36:26;;;;;;;4.40;3.30;;;;;;;13.39;86.34;99848.62;93909;1196;87725;-74
2021/09/18 07:38:30;;;;;;;3.60;2.80;;;;;;;13.35;85.98;99849.66;93873;1196;93863;-73
2021/09/18 07:40:36;;;;;;;3.50;3.00;;;;;;;13.36;85.91;99851.15;93895;1196;79234;-73
2021/09/18 07:42:44;;;;;;;5.00;3.60;;;;;;;13.39;85.89;99855.59;93920;1196;81950;-71
2021/09/18 07:44:48;;;;;;;4.20;3.30;;;;;;;13.37;85.62;99857.48;93879;1196;97815;-74
2021/09/18 07:46:53;;;;;;;4.10;3.40;;;;;;;13.34;85.64;99857.98;93891;1196;87218;-74
2021/09/18 07:48:58;;;;;;;4.10;3.50;;;;;;;13.37;85.50;99862.29;93834;1196;93296;-75
2021/09/18 07:51:04;;;;;;;4.70;3.60;;;;;;;13.27;85.17;99863.58;93895;1196;78359;-72
2021/09/18 07:53:08;;;;;;;5.90;3.70;;;;;;;13.23;85.28;99863.52;93873;1196;79497;-73
2021/09/18 07:55:13;;;;;;;5.00;3.30;;;;;;;13.17;85.33;99862.27;93857;1196;98534;-74
2021/09/18 07:57:18;;;;;;;3.90;2.80;;;;;;;13.02;85.40;99867.03;93862;1196;88100;-74
2021/09/18 07:59:25;;;;;;;3.50;2.60;;;;;;;13.01;85.25;99863.02;93868;1196;93955;-74
2021/09/18 08:01:33;;;;;;;4.00;2.70;;;;;;;12.93;85.24;99866.39;93882;1196;79174;-72
2021/09/18 08:03:41;;;;;;;3.90;2.80;;;;;;;12.99;85.28;99866.39;93852;1196;81144;-72
2021/09/18 08:05:45;;;;;;;4.70;2.70;;;;;;;13.02;85.14;99864.62;93858;1196;100129;-72
2021/09/18 08:07:52;;;;;;;2.90;2.20;;;;;;;12.99;85.05;99865.98;93771;1196;87637;-73
2021/09/18 08:09:57;;;;;;;2.90;1.80;;;;;;;12.96;84.93;99867.75;93875;1196;93336;-72
2021/09/18 08:12:06;;;;;;;2.90;2.20;;;;;;;12.91;84.73;99871.08;93853;1196;81065;-73
2021/09/18 08:14:11;;;;;;;3.20;2.10;;;;;;;12.87;84.74;99870.73;93733;1197;81248;-73
2021/09/18 08:16:16;;;;;;;2.60;1.70;;;;;;;12.90;84.71;99871.50;93847;1196;98174;-73
2021/09/18 08:18:23;;;;;;;2.80;2.20;;;;;;;12.92;84.65;99874.86;93854;1196;87601;-73
2021/09/18 08:20:28;;;;;;;3.20;2.20;;;;;;;12.96;84.79;99877.91;93832;1196;94025;-73
2021/09/18 08:22:32;;;;;;;4.90;2.70;;;;;;;12.93;84.74;99883.88;93857;1196;81438;-73
2021/09/18 08:24:37;;;;;;;5.30;2.80;;;;;;;12.95;84.81;99884.15;93871;1196;81004;-73
2021/09/18 08:26:44;;;;;;;3.70;2.60;;;;;;;12.95;84.80;99884.65;93867;1196;98248;-73
2021/09/18 08:28:49;;;;;;;3.50;2.30;;;;;;;12.97;84.89;99884.51;93880;1196;87354;-60
2021/09/18 08:30:53;;;;;;;5.50;3.10;;;;;;;12.97;84.73;99886.35;93826;1196;93674;-64
2021/09/18 08:32:58;;;;;;;5.10;3.40;;;;;;;12.90;84.48;99886.19;93843;1196;79074;-64
2021/09/18 08:35:02;;;;;;;4.10;3.60;;;;;;;12.82;84.46;99885.89;93849;1196;82011;-63
2021/09/18 08:37:10;;;;;;;4.10;3.30;;;;;;;12.69;84.45;99881.32;93721;1197;97432;-64
2021/09/18 08:39:14;;;;;;;4.80;3.40;;;;;;;12.68;84.63;99884.15;93660;1196;88202;-63
2021/09/18 08:41:19;;;;;;;4.60;3.70;;;;;;;12.75;84.68;99882.45;93816;1196;93690;-62
2021/09/18 08:43:23;;;;;;;5.80;3.90;;;;;;;12.81;84.66;99886.05;93858;1196;79350;-67
2021/09/18 08:45:28;;;;;;;4.70;3.90;;;;;;;12.84;84.75;99888.24;93845;1196;82081;-70
2021/09/18 08:47:35;;;;;;;4.90;4.20;;;;;;;12.91;84.74;99892.21;93932;1196;98508;-75
2021/09/18 08:49:41;;;;;;;6.70;5.70;;;;;;;12.96;84.37;99893.20;93834;1196;87259;-76
2021/09/18 08:51:46;;;;;;;6.30;5.70;;;;;;;13.05;84.66;99892.66;93837;1196;94371;-76
2021/09/18 08:53:51;;;;;;;8.70;5.70;;;;;;;13.16;84.32;99894.41;93887;1196;78547;-75
2021/09/18 08:55:56;;;;;;;6.70;6.00;;;;;;;13.17;84.13;99896.29;93861;1196;82235;-71
2021/09/18 08:58:00;;;;;;;6.90;6.30;;;;;;;13.03;83.84;99899.08;93917;1196;97838;-68
2021/09/18 09:00:09;;;;;;;7.60;6.90;;;;;;;13.03;83.88;99897.98;93868;1197;86760;-70
2021/09/18 09:02:18;;;;;;;8.10;7.40;;;;;;;13.01;83.83;99903.67;93854;1196;92926;-69
2021/09/18 09:04:33;;;;;;;9.20;7.40;;;;;;;12.97;83.54;99901.19;93790;1196;81371;-70
2021/09/18 09:06:47;;;;;;;8.00;7.20;;;;;;;12.91;83.28;99900.77;93871;1196;81522;-70
2021/09/18 09:09:00;;;;;;;7.80;7.00;;;;;;;12.82;83.53;99904.86;93863;1196;98887;-65
2021/09/18 09:11:19;;;;;;;8.20;7.50;;;;;;;12.80;83.64;99913.41;93897;1196;86703;-65
2021/09/18 09:13:26;;;;;;;9.60;8.70;;;;;;;12.78;83.72;99913.00;93851;1196;93162;-68
2021/09/18 09:15:30;;;;;;;8.90;8.10;;;;;;;12.76;83.42;99910.67;93809;1196;80162;-70
2021/09/18 09:17:38;;;;;;;8.00;7.30;;;;;;;12.77;83.49;99913.14;93830;1196;80418;-71
2021/09/18 09:19:43;;;;;;;9.10;8.20;;;;;;;12.70;83.33;99911.49;93785;1196;97605;-65
2021/09/18 09:21:53;;;;;;;10.00;9.00;;;;;;;12.68;83.49;99919.86;93860;1196;87566;-66
2021/09/18 09:24:09;;;;;;;10.20;9.40;;;;;;;12.70;83.38;99917.01;93842;1196;94723;-66
2021/09/18 09:26:16;;;;;;;9.50;8.50;;;;;;;12.70;83.25;99916.51;93838;1196;79570;-65
2021/09/18 09:28:32;;;;;;;8.30;7.50;;;;;;;12.72;83.28;99915.63;93849;1196;81519;-64
2021/09/18 09:30:36;;;;;;;8.80;8.00;;;;;;;12.74;83.40;99917.19;93846;1196;97046;-64
2021/09/18 09:33:07;;;;;;;8.60;7.90;;;;;;;12.79;83.20;99920.27;93831;1196;87412;-66
2021/09/18 09:35:15;;;;;;;8.90;8.20;;;;;;;12.73;82.96;99918.91;93873;1180;91932;-63
2021/09/18 09:37:19;;;;;;;8.70;7.90;;;;;;;12.75;82.89;99920.23;93856;1196;80374;-61
2021/09/18 09:39:27;;;;;;;7.70;7.10;;;;;;;12.77;82.97;99922.68;93899;1196;82407;-71
2021/09/18 09:41:35;;;;;;;6.70;6.00;;;;;;;12.80;82.94;99921.89;93837;1196;98726;-62
2021/09/18 09:43:45;;;;;;;8.00;5.60;;;;;;;12.73;82.57;99924.01;93849;1196;88531;-72
2021/09/18 09:45:50;;;;;;;5.50;5.00;;;;;;;12.70;82.65;99927.80;93828;1196;91936;-71